Time;durP1;ratioP1;P1;durP2;ratioP2;P2;SDS_P1;SDS_P2;PMS_P1;PMS_P2;Temp;Humidity;BMP_temperature;BMP_pressure;BME280_temperature;BME280_humidity;BME280_pressure;Samples;Min_cycle;Max_cycle;Signal;HPM_P1;HPM_P2
2021/03/13 00:01:21;;;;;;;;;;;;;;;3.82;62.81;96156.27;1747062;81;20239;-53
2021/03/13 00:03:49;;;;;;;;;;;;;;;3.82;62.92;96156.73;1749004;81;20229;-54
2021/03/13 00:06:17;;;;;;;;;;;;;;;3.80;62.88;96149.10;1737599;81;20498;-54
2021/03/13 00:08:45;;;;;;;;;;;;;;;3.78;63.03;96143.22;1749705;81;20232;-55
2021/03/13 00:11:12;;;;;;;;;;;;;;;3.76;63.05;96143.73;1749907;81;21631;-54
2021/03/13 00:13:39;;;;;;;;;;;;;;;3.73;63.09;96146.45;1741878;81;20303;-54
2021/03/13 00:16:06;;;;;;;;;;;;;;;3.76;63.21;96146.30;1752936;81;20209;-54
2021/03/13 00:18:36;;;;;;;;;;;;;;;3.81;63.16;96140.94;1751601;81;20217;-54
2021/03/13 00:21:05;;;;;;;;;;;;;;;3.83;63.02;96142.53;1749857;81;20217;-55
2021/03/13 00:23:33;;;;;;;;;;;;;;;3.83;62.94;96148.95;1749343;81;21207;-54
2021/03/13 00:26:00;;;;;;;;;;;;;;;3.81;62.89;96153.31;1739373;81;20252;-54
2021/03/13 00:28:27;;;;;;;;;;;;;;;3.83;62.87;96151.95;1746882;81;20491;-53
2021/03/13 00:30:54;;;;;;;;;;;;;;;3.87;62.79;96152.19;1744708;81;21165;-54
2021/03/13 00:33:23;;;;;;;;;;;;;;;3.89;62.65;96143.95;1748079;81;20269;-54
2021/03/13 00:35:52;;;;;;;;;;;;;;;3.86;62.59;96142.38;1743420;81;21441;-54
2021/03/13 00:38:21;;;;;;;;;;;;;;;3.80;62.63;96145.25;1739838;81;20213;-54
2021/03/13 00:40:49;;;;;;;;;;;;;;;3.76;62.69;96139.06;1751552;81;20224;-54
2021/03/13 00:43:17;;;;;;;;;;;;;;;3.77;62.63;96141.55;1737321;81;20239;-54
2021/03/13 00:45:45;;;;;;;;;;;;;;;3.78;62.55;96138.52;1742428;81;20249;-54
2021/03/13 00:48:12;;;;;;;;;;;;;;;3.80;62.42;96139.27;1747851;81;21102;-54
2021/03/13 00:50:41;;;;;;;;;;;;;;;3.80;62.42;96134.98;1746262;81;20235;-54
2021/03/13 00:53:09;;;;;;;;;;;;;;;3.85;62.28;96130.91;1746752;81;20500;-55
2021/03/13 00:55:37;;;;;;;;;;;;;;;3.82;62.35;96129.78;1740734;81;20754;-54
2021/03/13 00:58:06;;;;;;;;;;;;;;;3.78;62.41;96124.41;1744879;81;20223;-54
2021/03/13 01:00:36;;;;;;;;;;;;;;;3.69;62.70;96121.87;1749536;81;22287;-54
2021/03/13 01:03:04;;;;;;;;;;;;;;;3.64;63.00;96127.23;1748048;81;20233;-55
2021/03/13 01:05:33;;;;;;;;;;;;;;;3.56;63.17;96119.55;1750343;81;20229;-54
2021/03/13 01:08:01;;;;;;;;;;;;;;;3.53;63.35;96122.27;1741556;81;20222;-55
2021/03/13 01:10:35;;;;;;;;;;;;;;;3.56;63.57;96120.37;1741098;81;20247;-54
2021/03/13 01:13:04;;;;;;;;;;;;;;;3.58;63.64;96118.55;1734888;81;21211;-54
2021/03/13 01:15:34;;;;;;;;;;;;;;;3.56;63.64;96121.65;1750297;81;20252;-55
2021/03/13 01:18:01;;;;;;;;;;;;;;;3.54;63.69;96127.78;1742283;81;20256;-55
2021/03/13 01:20:29;;;;;;;;;;;;;;;3.53;63.63;96118.41;1748556;81;20220;-55
2021/03/13 01:22:56;;;;;;;;;;;;;;;3.52;63.63;96122.72;1746843;81;20240;-55
2021/03/13 01:25:24;;;;;;;;;;;;;;;3.55;63.53;96120.44;1737709;81;21204;-55
2021/03/13 01:27:51;;;;;;;;;;;;;;;3.57;63.49;96122.47;1744764;81;20298;-56
2021/03/13 01:30:21;;;;;;;;;;;;;;;3.55;63.44;96120.44;1742625;81;20566;-55
2021/03/13 01:32:50;;;;;;;;;;;;;;;3.53;63.51;96123.55;1746052;81;20220;-55
2021/03/13 01:35:18;;;;;;;;;;;;;;;3.53;63.50;96127.39;1750599;81;20585;-55
2021/03/13 01:37:46;;;;;;;;;;;;;;;3.49;63.64;96126.26;1731387;81;21643;-55
2021/03/13 01:40:17;;;;;;;;;;;;;;;3.46;63.75;96128.16;1751646;81;20213;-54
2021/03/13 01:42:44;;;;;;;;;;;;;;;3.46;63.84;96128.97;1736198;81;20220;-55
2021/03/13 01:45:14;;;;;;;;;;;;;;;3.45;63.91;96137.59;1745069;81;20245;-56
2021/03/13 01:47:42;;;;;;;;;;;;;;;3.48;63.90;96134.84;1742877;81;20271;-55
2021/03/13 01:50:13;;;;;;;;;;;;;;;3.54;63.80;96138.04;1748221;81;21208;-55
2021/03/13 01:52:41;;;;;;;;;;;;;;;3.58;63.73;96131.84;1748219;81;20255;-55
2021/03/13 01:55:10;;;;;;;;;;;;;;;3.63;63.58;96128.58;1738775;81;20832;-54
2021/03/13 01:57:40;;;;;;;;;;;;;;;3.69;63.45;96132.13;1739324;81;20764;-54
2021/03/13 02:00:11;;;;;;;;;;;;;;;3.72;63.43;96128.56;1749924;81;38201;-54
2021/03/13 02:02:41;;;;;;;;;;;;;;;3.79;62.81;96132.03;1748192;81;22410;-54
2021/03/13 02:05:26;;;;;;;;;;;;;;;3.84;62.29;96134.38;1753117;80;20212;-53
2021/03/13 02:08:22;;;;;;;;;;;;;;;3.85;61.39;96136.86;1745291;81;20252;-53
2021/03/13 02:11:08;;;;;;;;;;;;;;;3.74;61.37;96139.14;1750835;81;20268;-53
2021/03/13 02:13:49;;;;;;;;;;;;;;;3.71;61.77;96142.32;1750501;81;20343;-53
2021/03/13 02:16:34;;;;;;;;;;;;;;;3.70;61.76;96135.08;1747732;81;22148;-54
2021/03/13 02:19:28;;;;;;;;;;;;;;;3.73;62.13;96132.34;1746048;81;20271;-55
2021/03/13 02:21:58;;;;;;;;;;;;;;;3.80;62.22;96141.84;1750738;81;20293;-53
2021/03/13 02:24:31;;;;;;;;;;;;;;;3.85;62.32;96136.05;1741880;81;20293;-53
2021/03/13 02:27:12;;;;;;;;;;;;;;;3.93;62.40;96140.77;1753267;81;20213;-54
2021/03/13 02:29:47;;;;;;;;;;;;;;;4.05;62.41;96142.72;1746433;80;21622;-54
2021/03/13 02:32:47;;;;;;;;;;;;;;;4.16;62.10;96140.42;1740298;80;20248;-53
2021/03/13 02:35:19;;;;;;;;;;;;;;;4.20;62.05;96144.94;1749849;81;20246;-53
2021/03/13 02:37:48;;;;;;;;;;;;;;;4.20;61.91;96133.38;1742345;81;20223;-54
2021/03/13 02:40:19;;;;;;;;;;;;;;;4.21;61.93;96133.30;1748626;81;20242;-54
2021/03/13 02:43:04;;;;;;;;;;;;;;;4.24;61.89;96130.58;1747415;81;21212;-54
2021/03/13 02:45:34;;;;;;;;;;;;;;;4.30;61.75;96128.59;1736099;81;20492;-53
2021/03/13 02:48:04;;;;;;;;;;;;;;;4.34;61.70;96132.64;1776548;80;20271;-54
2021/03/13 02:50:32;;;;;;;;;;;;;;;4.41;61.58;96136.09;1749889;81;20571;-53
2021/03/13 02:53:01;;;;;;;;;;;;;;;4.48;61.40;96135.31;1746652;80;20219;-53
2021/03/13 02:55:30;;;;;;;;;;;;;;;4.49;60.73;96132.28;1731711;81;21345;-54
2021/03/13 02:57:59;;;;;;;;;;;;;;;4.45;60.64;96131.63;1745199;81;20277;-53
2021/03/13 03:00:30;;;;;;;;;;;;;;;4.41;60.73;96131.42;1725267;81;20212;-54
2021/03/13 03:02:58;;;;;;;;;;;;;;;4.40;60.62;96133.61;1749577;81;20219;-53
2021/03/13 03:05:28;;;;;;;;;;;;;;;4.39;60.55;96131.94;1750718;81;20485;-54
2021/03/13 03:08:02;;;;;;;;;;;;;;;4.38;60.42;96129.02;1744163;81;21193;-55
2021/03/13 03:10:32;;;;;;;;;;;;;;;4.36;60.40;96129.56;1749316;81;20524;-54
2021/03/13 03:13:00;;;;;;;;;;;;;;;4.32;60.36;96131.44;1742290;81;20221;-54
2021/03/13 03:15:30;;;;;;;;;;;;;;;4.31;60.38;96127.23;1719300;81;20241;-54
2021/03/13 03:18:00;;;;;;;;;;;;;;;4.32;60.43;96130.16;1747551;81;20213;-54
2021/03/13 03:20:28;;;;;;;;;;;;;;;4.28;60.56;96132.52;1743853;82;21448;-53
2021/03/13 03:22:56;;;;;;;;;;;;;;;4.26;60.61;96136.92;1747037;82;20268;-58
2021/03/13 03:25:23;;;;;;;;;;;;;;;4.23;60.89;96139.18;1746200;82;20290;-55
2021/03/13 03:27:51;;;;;;;;;;;;;;;4.11;61.19;96137.70;1747384;82;20224;-54
2021/03/13 03:30:26;;;;;;;;;;;;;;;4.00;61.39;96143.41;1747023;80;21317;-54
2021/03/13 03:32:54;;;;;;;;;;;;;;;3.91;61.57;96137.45;1749165;81;22148;-54
2021/03/13 03:35:22;;;;;;;;;;;;;;;3.86;61.74;96139.81;1759640;80;20239;-54
2021/03/13 03:37:51;;;;;;;;;;;;;;;3.79;61.94;96142.77;1739605;82;20227;-54
2021/03/13 03:40:18;;;;;;;;;;;;;;;3.69;62.11;96138.08;1766093;80;20217;-54
2021/03/13 03:43:12;;;;;;;;;;;;;;;3.68;62.16;96135.59;1739275;82;20244;-55
2021/03/13 03:45:41;;;;;;;;;;;;;;;3.67;62.29;96135.23;1736790;80;21201;-53
2021/03/13 03:48:12;;;;;;;;;;;;;;;3.64;62.34;96137.48;1738570;82;20229;-53
2021/03/13 03:50:43;;;;;;;;;;;;;;;3.62;62.39;96141.05;1747732;82;20265;-53
2021/03/13 03:53:27;;;;;;;;;;;;;;;3.55;62.47;96136.66;1729470;82;20227;-53
2021/03/13 03:55:55;;;;;;;;;;;;;;;3.49;62.54;96140.83;1740429;82;20221;-53
2021/03/13 03:58:28;;;;;;;;;;;;;;;3.47;62.56;96143.90;1744003;82;21210;-54
2021/03/13 04:00:56;;;;;;;;;;;;;;;3.46;62.54;96141.80;1741201;82;20225;-53
2021/03/13 04:03:24;;;;;;;;;;;;;;;3.42;62.53;96141.59;1741996;82;20233;-53
2021/03/13 04:05:51;;;;;;;;;;;;;;;3.39;62.66;96139.59;1742381;82;20248;-53
2021/03/13 04:08:18;;;;;;;;;;;;;;;3.37;62.73;96134.58;1746300;82;20217;-53
2021/03/13 04:10:47;;;;;;;;;;;;;;;3.38;62.77;96135.39;1727542;82;21378;-53
2021/03/13 04:13:16;;;;;;;;;;;;;;;3.39;62.81;96133.19;1738051;82;20221;-53
2021/03/13 04:15:44;;;;;;;;;;;;;;;3.43;62.89;96133.43;1745413;82;20221;-53
2021/03/13 04:18:11;;;;;;;;;;;;;;;3.48;62.80;96135.31;1744223;81;20232;-52
2021/03/13 04:20:39;;;;;;;;;;;;;;;3.51;62.89;96144.14;1739953;81;20275;-53
2021/03/13 04:23:07;;;;;;;;;;;;;;;3.57;62.76;96137.86;1751024;81;22282;-53
2021/03/13 04:25:35;;;;;;;;;;;;;;;3.56;62.53;96134.94;1749740;81;20217;-53
2021/03/13 04:28:03;;;;;;;;;;;;;;;3.49;62.58;96131.39;1747678;81;20240;-53
2021/03/13 04:30:30;;;;;;;;;;;;;;;3.41;62.72;96131.40;1742585;81;20225;-53
2021/03/13 04:32:59;;;;;;;;;;;;;;;3.31;63.04;96135.69;1746746;81;20246;-53
2021/03/13 04:35:28;;;;;;;;;;;;;;;3.29;63.23;96137.97;1737216;81;21261;-52
2021/03/13 04:37:56;;;;;;;;;;;;;;;3.28;63.25;96135.83;1748383;81;20513;-53
2021/03/13 04:40:23;;;;;;;;;;;;;;;3.21;63.41;96135.77;1751058;81;20245;-52
2021/03/13 04:42:50;;;;;;;;;;;;;;;3.12;63.63;96139.61;1736953;80;20227;-53
2021/03/13 04:45:18;;;;;;;;;;;;;;;3.07;63.85;96141.54;1750566;81;20294;-52
2021/03/13 04:47:47;;;;;;;;;;;;;;;3.04;63.98;96144.70;1745917;80;21203;-53
2021/03/13 04:50:20;;;;;;;;;;;;;;;3.03;64.07;96139.22;1748354;81;20217;-51
2021/03/13 04:52:48;;;;;;;;;;;;;;;3.08;64.15;96137.27;1748165;81;20216;-55
2021/03/13 04:55:15;;;;;;;;;;;;;;;3.18;64.15;96136.37;1746286;80;20252;-53
2021/03/13 04:57:42;;;;;;;;;;;;;;;3.25;63.83;96141.11;1747065;81;20276;-53
2021/03/13 05:00:11;;;;;;;;;;;;;;;3.31;63.55;96140.81;1749460;81;21435;-53
2021/03/13 05:02:39;;;;;;;;;;;;;;;3.35;63.27;96146.62;1752132;81;21076;-52
2021/03/13 05:05:08;;;;;;;;;;;;;;;3.30;63.29;96146.02;1752777;81;20515;-54
2021/03/13 05:07:36;;;;;;;;;;;;;;;3.29;63.35;96147.76;1747400;81;20224;-54
2021/03/13 05:10:06;;;;;;;;;;;;;;;3.24;63.40;96147.16;1748659;81;20220;-53
2021/03/13 05:12:34;;;;;;;;;;;;;;;3.20;63.56;96148.66;1736066;81;21397;-52
2021/03/13 05:15:05;;;;;;;;;;;;;;;3.13;63.78;96149.41;1749511;81;20280;-52
2021/03/13 05:17:33;;;;;;;;;;;;;;;3.06;63.88;96146.73;1743624;81;20232;-53
2021/03/13 05:20:03;;;;;;;;;;;;;;;3.02;64.04;96145.23;1734321;81;20296;-52
2021/03/13 05:22:31;;;;;;;;;;;;;;;2.97;64.17;96148.47;1746923;81;20490;-52
2021/03/13 05:24:58;;;;;;;;;;;;;;;2.97;64.21;96144.17;1741576;81;21205;-52
2021/03/13 05:27:25;;;;;;;;;;;;;;;3.02;64.26;96146.06;1735696;81;20268;-53
2021/03/13 05:29:52;;;;;;;;;;;;;;;3.10;64.24;96146.98;1741894;81;20236;-53
2021/03/13 05:32:21;;;;;;;;;;;;;;;3.26;63.87;96153.50;1748358;81;21065;-53
2021/03/13 05:34:49;;;;;;;;;;;;;;;3.37;63.27;96147.39;1746747;81;20220;-53
2021/03/13 05:37:16;;;;;;;;;;;;;;;3.39;63.00;96150.70;1729527;81;21262;-53
2021/03/13 05:39:44;;;;;;;;;;;;;;;3.43;62.92;96156.05;1740068;81;20220;-53
2021/03/13 05:42:12;;;;;;;;;;;;;;;3.51;62.66;96156.97;1741995;81;20512;-53
2021/03/13 05:44:40;;;;;;;;;;;;;;;3.55;62.43;96152.05;1740334;81;20244;-52
2021/03/13 05:47:07;;;;;;;;;;;;;;;3.57;62.27;96141.70;1745997;81;20605;-54
2021/03/13 05:49:38;;;;;;;;;;;;;;;3.60;62.12;96146.26;1741616;81;20734;-53
2021/03/13 05:52:07;;;;;;;;;;;;;;;3.85;61.58;96141.99;1742523;81;20237;-52
2021/03/13 05:54:34;;;;;;;;;;;;;;;4.09;60.99;96148.52;1734828;81;21118;-53
2021/03/13 05:57:01;;;;;;;;;;;;;;;4.49;60.23;96139.55;1742102;81;20520;-53
2021/03/13 05:59:29;;;;;;;;;;;;;;;5.00;58.51;96135.52;1745159;81;20253;-53
2021/03/13 06:01:56;;;;;;;;;;;;;;;5.62;57.31;96147.45;1754409;81;21269;-52
2021/03/13 06:04:27;;;;;;;;;;;;;;;6.57;54.11;96143.09;1737765;81;20238;-53
2021/03/13 06:06:54;;;;;;;;;;;;;;;7.52;50.88;96150.91;1733044;81;20275;-53
2021/03/13 06:09:21;;;;;;;;;;;;;;;8.31;49.11;96153.44;1751833;81;20232;-53
2021/03/13 06:11:48;;;;;;;;;;;;;;;8.85;47.24;96145.38;1748510;81;21646;-53
2021/03/13 06:14:15;;;;;;;;;;;;;;;9.35;46.35;96138.32;1751716;81;21409;-53
2021/03/13 06:16:43;;;;;;;;;;;;;;;10.11;45.09;96131.44;1729511;81;20249;-53
2021/03/13 06:19:10;;;;;;;;;;;;;;;10.94;43.56;96130.72;1751390;81;20229;-53
2021/03/13 06:21:40;;;;;;;;;;;;;;;11.73;42.19;96134.31;1746328;81;20270;-53
2021/03/13 06:24:23;;;;;;;;;;;;;;;12.48;39.78;96142.80;1744509;81;20239;-53
2021/03/13 06:26:53;;;;;;;;;;;;;;;13.14;39.02;96129.75;1740307;81;21382;-53
2021/03/13 06:29:20;;;;;;;;;;;;;;;13.67;37.00;96132.45;1738126;81;20230;-52
2021/03/13 06:32:08;;;;;;;;;;;;;;;14.00;35.66;96131.19;1742314;81;20228;-53
2021/03/13 06:34:38;;;;;;;;;;;;;;;14.08;35.55;96132.61;1682026;83;20564;-53
2021/03/13 06:37:25;;;;;;;;;;;;;;;14.47;35.62;96137.72;1734134;81;20274;-53
2021/03/13 06:39:52;;;;;;;;;;;;;;;15.05;34.15;96131.39;1742548;81;21415;-53
2021/03/13 06:42:26;;;;;;;;;;;;;;;15.53;32.85;96129.39;1740565;81;20236;-53
2021/03/13 06:44:56;;;;;;;;;;;;;;;15.54;31.96;96132.82;1745253;81;20215;-53
2021/03/13 06:47:40;;;;;;;;;;;;;;;15.69;31.29;96130.03;1743266;81;20244;-53
2021/03/13 06:50:26;;;;;;;;;;;;;;;15.78;31.61;96129.63;1746332;81;20217;-53
2021/03/13 06:52:55;;;;;;;;;;;;;;;16.32;30.61;96139.97;1739379;81;21507;-53
2021/03/13 06:55:25;;;;;;;;;;;;;;;16.85;29.03;96134.98;1747832;80;20273;-53
2021/03/13 06:57:56;;;;;;;;;;;;;;;17.13;28.90;96136.55;1739292;81;20223;-53
2021/03/13 07:00:30;;;;;;;;;;;;;;;17.22;29.55;96138.20;1745477;81;20492;-53
2021/03/13 07:03:11;;;;;;;;;;;;;;;17.94;28.50;96133.19;1750475;81;20240;-53
2021/03/13 07:05:40;;;;;;;;;;;;;;;18.53;27.00;96123.72;1737100;81;21201;-53
2021/03/13 07:08:28;;;;;;;;;;;;;;;19.07;26.44;96116.95;1745299;81;20220;-53
2021/03/13 07:11:11;;;;;;;;;;;;;;;19.12;25.89;96121.20;1751057;81;20304;-53
2021/03/13 07:13:40;;;;;;;;;;;;;;;18.99;25.41;96113.05;1738485;81;20221;-52
2021/03/13 07:16:35;;;;;;;;;;;;;;;19.49;25.46;96120.98;1749881;81;20243;-53
2021/03/13 07:19:11;;;;;;;;;;;;;;;19.81;24.98;96116.47;1752948;81;22102;-53
2021/03/13 07:21:42;;;;;;;;;;;;;;;19.81;24.92;96119.10;1746348;81;20271;-53
2021/03/13 07:24:13;;;;;;;;;;;;;;;19.71;25.15;96118.50;1745083;81;20227;-53
2021/03/13 07:26:45;;;;;;;;;;;;;;;20.18;24.68;96120.06;1741001;81;20701;-53
2021/03/13 07:29:15;;;;;;;;;;;;;;;20.60;24.16;96121.27;1736126;81;20287;-53
2021/03/13 07:31:54;;;;;;;;;;;;;;;20.88;23.97;96115.38;1749883;81;22184;-54
2021/03/13 07:34:30;;;;;;;;;;;;;;;21.21;22.76;96115.74;1732457;81;20274;-54
2021/03/13 07:36:58;;;;;;;;;;;;;;;21.00;23.35;96116.52;1741639;81;20254;-53
2021/03/13 07:39:44;;;;;;;;;;;;;;;20.43;23.29;96123.28;1745085;81;20233;-53
2021/03/13 07:42:14;;;;;;;;;;;;;;;19.28;24.79;96121.09;1728177;81;20220;-53
2021/03/13 07:44:42;;;;;;;;;;;;;;;18.82;25.64;96117.05;1750031;81;20682;-53
2021/03/13 07:47:10;;;;;;;;;;;;;;;18.93;26.16;96118.02;1749327;81;20769;-53
2021/03/13 07:49:41;;;;;;;;;;;;;;;19.02;25.10;96108.27;1737783;81;20221;-54
2021/03/13 07:52:11;;;;;;;;;;;;;;;18.83;25.33;96123.98;1751178;81;20217;-54
2021/03/13 07:54:40;;;;;;;;;;;;;;;19.12;25.50;96122.00;1747376;80;21120;-53
2021/03/13 07:57:08;;;;;;;;;;;;;;;19.18;24.53;96111.78;1747560;81;22109;-53
2021/03/13 07:59:46;;;;;;;;;;;;;;;18.74;25.05;96119.20;1736363;81;20248;-53
2021/03/13 08:02:32;;;;;;;;;;;;;;;18.46;25.25;96120.14;1741203;81;20293;-54
2021/03/13 08:05:14;;;;;;;;;;;;;;;18.46;25.24;96120.14;1737494;81;20217;-53
2021/03/13 08:07:54;;;;;;;;;;;;;;;18.16;25.34;96119.89;1751404;81;20248;-53
2021/03/13 08:10:41;;;;;;;;;;;;;;;17.98;26.44;96134.52;1749860;81;21384;-53
2021/03/13 08:13:10;;;;;;;;;;;;;;;18.69;25.78;96130.73;1743501;81;20490;-53
2021/03/13 08:15:43;;;;;;;;;;;;;;;19.68;23.95;96120.47;1746601;81;20229;-53
2021/03/13 08:18:13;;;;;;;;;;;;;;;20.21;23.86;96111.81;1752617;81;20645;-54
2021/03/13 08:20:41;;;;;;;;;;;;;;;20.24;22.90;96107.50;1729687;81;20216;-52
2021/03/13 08:23:18;;;;;;;;;;;;;;;19.97;23.02;96103.67;1740609;82;21241;-53
2021/03/13 08:25:55;;;;;;;;;;;;;;;19.42;22.77;96093.20;1746111;82;20229;-53
2021/03/13 08:28:50;;;;;;;;;;;;;;;18.87;23.72;96103.43;1746164;82;20499;-53
2021/03/13 08:31:24;;;;;;;;;;;;;;;18.63;24.00;96101.69;1743297;82;20295;-53
2021/03/13 08:33:53;;;;;;;;;;;;;;;18.72;23.14;96084.91;1735162;82;20266;-53
2021/03/13 08:36:24;;;;;;;;;;;;;;;18.44;23.96;96096.33;1734198;81;21261;-53
2021/03/13 08:38:55;;;;;;;;;;;;;;;18.46;23.50;96087.81;1741109;82;20275;-53
2021/03/13 08:41:45;;;;;;;;;;;;;;;18.27;23.63;96091.13;1741449;82;20225;-55
2021/03/13 08:44:22;;;;;;;;;;;;;;;17.93;24.11;96095.33;1736364;82;20272;-54
2021/03/13 08:46:59;;;;;;;;;;;;;;;17.92;24.70;96105.48;1737357;82;20224;-53
2021/03/13 08:49:31;;;;;;;;;;;;;;;18.05;24.32;96098.42;1739756;82;21211;-53
2021/03/13 08:52:11;;;;;;;;;;;;;;;18.02;23.25;96075.94;1724824;82;20503;-53
2021/03/13 08:54:43;;;;;;;;;;;;;;;17.53;23.96;96087.76;1687644;84;20276;-54
2021/03/13 08:57:19;;;;;;;;;;;;;;;17.14;24.90;96102.79;1703264;83;20225;-53
2021/03/13 08:59:59;;;;;;;;;;;;;;;17.11;24.49;96112.63;1723045;82;20332;-54
2021/03/13 09:02:36;;;;;;;;;;;;;;;17.00;24.90;96103.75;1724847;83;21195;-54
2021/03/13 09:05:16;;;;;;;;;;;;;;;16.73;25.00;96087.77;1701050;83;20499;-53
2021/03/13 09:07:53;;;;;;;;;;;;;;;16.15;26.08;96095.84;1699780;83;20284;-53
2021/03/13 09:10:20;;;;;;;;;;;;;;;15.90;26.04;96080.49;1690869;83;22111;-53
2021/03/13 09:12:48;;;;;;;;;;;;;;;16.04;26.52;96079.93;1695198;83;20497;-53
2021/03/13 09:15:17;;;;;;;;;;;;;;;16.47;25.78;96103.55;1694734;83;20297;-53
2021/03/13 09:17:44;;;;;;;;;;;;;;;16.72;24.95;96101.34;1706188;82;20223;-54
2021/03/13 09:20:15;;;;;;;;;;;;;;;17.28;25.39;96108.72;1678271;84;20307;-53
2021/03/13 09:22:46;;;;;;;;;;;;;;;17.92;23.15;96091.05;1740090;82;20269;-54
2021/03/13 09:25:24;;;;;;;;;;;;;;;17.75;23.79;96096.78;1735042;82;20224;-54
2021/03/13 09:27:52;;;;;;;;;;;;;;;17.68;24.13;96088.76;1739066;82;21142;-53
2021/03/13 09:30:22;;;;;;;;;;;;;;;17.85;23.50;96079.87;1737329;82;20221;-53
2021/03/13 09:32:51;;;;;;;;;;;;;;;17.87;23.63;96095.95;1739386;82;20217;-53
2021/03/13 09:35:22;;;;;;;;;;;;;;;17.50;24.06;96090.70;1741550;82;20289;-53
2021/03/13 09:37:49;;;;;;;;;;;;;;;16.84;24.22;96093.19;1761812;80;20241;-54
2021/03/13 09:40:17;;;;;;;;;;;;;;;16.55;25.03;96097.03;1735903;82;21146;-53
2021/03/13 09:42:46;;;;;;;;;;;;;;;16.67;24.87;96081.35;1740211;82;20217;-53
2021/03/13 09:45:18;;;;;;;;;;;;;;;16.82;25.63;96078.13;1742930;82;20309;-53
2021/03/13 09:47:58;;;;;;;;;;;;;;;17.00;24.09;96091.14;1741484;82;20275;-54
2021/03/13 09:50:29;;;;;;;;;;;;;;;16.71;24.99;96087.93;1745358;82;20509;-55
2021/03/13 09:52:56;;;;;;;;;;;;;;;16.22;25.26;96092.95;1734663;82;21258;-54
2021/03/13 09:55:24;;;;;;;;;;;;;;;15.95;26.33;96084.77;1730621;82;20297;-55
2021/03/13 09:57:53;;;;;;;;;;;;;;;16.27;25.92;96083.33;1741283;82;20232;-54
2021/03/13 10:00:30;;;;;;;;;;;;;;;16.86;25.58;96087.36;1735709;82;20304;-55
2021/03/13 10:02:59;;;;;;;;;;;;;;;16.62;24.53;96088.06;1734646;82;20494;-54
2021/03/13 10:05:29;;;;;;;;;;;;;;;16.35;25.48;96082.87;1739941;82;21336;-54
2021/03/13 10:08:00;;;;;;;;;;;;;;;16.89;25.33;96066.05;1736077;82;20237;-53
2021/03/13 10:10:27;;;;;;;;;;;;;;;17.37;25.12;96080.70;1739984;81;20260;-55
2021/03/13 10:13:02;;;;;;;;;;;;;;;17.69;24.87;96073.33;1745951;82;20229;-53
2021/03/13 10:15:37;;;;;;;;;;;;;;;17.88;24.58;96075.30;1743604;82;20245;-54
2021/03/13 10:18:14;;;;;;;;;;;;;;;17.53;24.29;96075.95;1738439;82;22193;-57
2021/03/13 10:20:45;;;;;;;;;;;;;;;16.62;25.11;96067.91;1734053;82;20245;-54
2021/03/13 10:23:14;;;;;;;;;;;;;;;16.12;26.22;96098.30;1742222;82;20268;-54
2021/03/13 10:25:58;;;;;;;;;;;;;;;15.94;26.22;96066.95;1735383;82;20229;-54
2021/03/13 10:28:30;;;;;;;;;;;;;;;15.31;26.76;96086.71;1743606;82;20234;-55
2021/03/13 10:31:11;;;;;;;;;;;;;;;15.42;27.35;96075.53;1744172;82;22121;-54
2021/03/13 10:33:44;;;;;;;;;;;;;;;16.16;26.86;96080.48;1741861;82;20722;-53
2021/03/13 10:36:12;;;;;;;;;;;;;;;16.60;25.13;96077.73;1726751;82;20215;-54
2021/03/13 10:38:47;;;;;;;;;;;;;;;15.93;26.14;96058.77;1709574;83;20275;-54
2021/03/13 10:41:16;;;;;;;;;;;;;;;15.30;27.67;96048.50;1693919;83;20235;-55
2021/03/13 10:43:45;;;;;;;;;;;;;;;15.50;27.52;96069.56;1704437;83;21226;-54
2021/03/13 10:46:19;;;;;;;;;;;;;;;15.80;26.56;96065.70;1731253;81;20244;-55
2021/03/13 10:48:51;;;;;;;;;;;;;;;16.00;26.67;96068.12;1737676;82;20237;-53
2021/03/13 10:51:26;;;;;;;;;;;;;;;16.31;25.82;96044.07;1742076;82;20245;-53
2021/03/13 10:53:55;;;;;;;;;;;;;;;16.35;25.89;96082.06;1740879;82;20500;-53
2021/03/13 10:56:22;;;;;;;;;;;;;;;16.11;26.02;96084.05;1744544;82;22149;-54
2021/03/13 10:58:52;;;;;;;;;;;;;;;16.07;25.83;96067.85;1734226;81;20225;-54
2021/03/13 11:01:20;;;;;;;;;;;;;;;16.02;26.04;96075.34;1741145;82;20228;-54
2021/03/13 11:03:49;;;;;;;;;;;;;;;16.03;25.98;96073.55;1741301;81;20220;-53
2021/03/13 11:06:29;;;;;;;;;;;;;;;15.97;26.78;96066.65;1736393;82;20241;-54
2021/03/13 11:08:59;;;;;;;;;;;;;;;15.75;26.39;96069.23;1748056;82;21219;-53
2021/03/13 11:11:27;;;;;;;;;;;;;;;15.42;27.22;96036.32;1734548;81;20259;-53
2021/03/13 11:13:54;;;;;;;;;;;;;;;15.42;26.97;96040.73;1740187;82;20224;-55
2021/03/13 11:16:22;;;;;;;;;;;;;;;15.35;27.54;96044.94;1742029;82;20520;-54
2021/03/13 11:18:52;;;;;;;;;;;;;;;15.63;27.79;96027.33;1743360;82;20232;-55
2021/03/13 11:21:20;;;;;;;;;;;;;;;15.93;26.64;96044.38;1700078;82;22101;-55
2021/03/13 11:23:49;;;;;;;;;;;;;;;16.04;26.85;96049.03;1716156;82;20234;-54
2021/03/13 11:26:18;;;;;;;;;;;;;;;15.95;27.21;96045.06;1721883;82;20238;-54
2021/03/13 11:28:45;;;;;;;;;;;;;;;15.76;27.01;96023.84;1714704;82;21987;-54
2021/03/13 11:31:13;;;;;;;;;;;;;;;15.47;27.44;96041.09;1718014;82;20269;-54
2021/03/13 11:33:40;;;;;;;;;;;;;;;15.38;27.63;96040.23;1710345;82;22517;-54
2021/03/13 11:36:08;;;;;;;;;;;;;;;15.12;27.76;96038.05;1727678;82;20225;-54
2021/03/13 11:38:36;;;;;;;;;;;;;;;14.66;28.31;96033.69;1716218;82;20465;-55
2021/03/13 11:41:05;;;;;;;;;;;;;;;14.33;28.96;96042.42;1710174;82;20698;-55
2021/03/13 11:43:36;;;;;;;;;;;;;;;14.01;29.17;96041.52;1724353;82;20505;-54
2021/03/13 11:46:03;;;;;;;;;;;;;;;13.74;29.92;96044.92;1717162;82;21156;-54
2021/03/13 11:48:31;;;;;;;;;;;;;;;13.57;30.29;96040.77;1718170;82;20289;-54
2021/03/13 11:50:58;;;;;;;;;;;;;;;13.28;30.59;96034.75;1721882;83;20217;-54
2021/03/13 11:53:25;;;;;;;;;;;;;;;12.88;31.43;96026.12;1717841;82;20220;-54
2021/03/13 11:55:54;;;;;;;;;;;;;;;12.95;31.55;96031.61;1715358;82;20218;-55
2021/03/13 11:58:21;;;;;;;;;;;;;;;13.33;31.56;96037.79;1716095;82;20952;-55
2021/03/13 12:00:51;;;;;;;;;;;;;;;13.59;30.58;96027.59;1718563;82;20295;-54
2021/03/13 12:03:18;;;;;;;;;;;;;;;13.64;30.84;96001.92;1716102;82;20219;-53
2021/03/13 12:05:46;;;;;;;;;;;;;;;13.84;30.59;96032.67;1722961;82;20215;-53
2021/03/13 12:08:15;;;;;;;;;;;;;;;14.10;30.58;96024.21;1727924;83;20233;-54
2021/03/13 12:10:44;;;;;;;;;;;;;;;14.11;30.18;96021.46;1718019;82;20213;-53
2021/03/13 12:13:14;;;;;;;;;;;;;;;13.69;30.52;96003.62;1716830;82;20523;-54
2021/03/13 12:15:43;;;;;;;;;;;;;;;13.18;31.81;96023.84;1718305;82;20261;-53
2021/03/13 12:18:10;;;;;;;;;;;;;;;12.75;32.21;96013.36;1719058;82;21914;-53
2021/03/13 12:20:38;;;;;;;;;;;;;;;12.48;33.02;96009.64;1729792;81;20253;-54
2021/03/13 12:23:05;;;;;;;;;;;;;;;12.54;32.99;96000.45;1741129;82;21651;-53
2021/03/13 12:25:33;;;;;;;;;;;;;;;12.80;33.09;96014.27;1746531;82;20288;-53
2021/03/13 12:28:01;;;;;;;;;;;;;;;13.01;32.48;96003.23;1740041;82;20225;-53
2021/03/13 12:30:28;;;;;;;;;;;;;;;13.22;32.56;96008.75;1737216;82;20219;-53
2021/03/13 12:32:56;;;;;;;;;;;;;;;13.41;31.54;96002.25;1740762;82;20217;-54
2021/03/13 12:35:24;;;;;;;;;;;;;;;13.28;31.19;96005.60;1732105;82;21203;-53
2021/03/13 12:37:52;;;;;;;;;;;;;;;13.01;32.13;96005.84;1726996;82;20248;-53
2021/03/13 12:40:19;;;;;;;;;;;;;;;12.61;32.69;95995.53;1738563;82;20225;-53
2021/03/13 12:42:46;;;;;;;;;;;;;;;12.50;32.68;95992.59;1746273;82;20505;-54
2021/03/13 12:45:14;;;;;;;;;;;;;;;12.52;33.01;96004.98;1735925;82;20232;-54
2021/03/13 12:47:41;;;;;;;;;;;;;;;12.62;33.16;96005.00;1741407;82;21200;-54
2021/03/13 12:50:10;;;;;;;;;;;;;;;12.85;33.23;96006.86;1742937;82;20767;-53
2021/03/13 12:52:37;;;;;;;;;;;;;;;13.15;32.63;96001.16;1741845;82;20217;-54
2021/03/13 12:55:06;;;;;;;;;;;;;;;13.06;32.71;96021.87;1740717;82;20278;-54
2021/03/13 12:57:33;;;;;;;;;;;;;;;12.70;32.75;96009.05;1740047;82;20226;-53
2021/03/13 13:00:00;;;;;;;;;;;;;;;12.65;33.26;96017.26;1743504;82;21298;-53
2021/03/13 13:02:28;;;;;;;;;;;;;;;12.89;33.24;96013.42;1743226;82;20500;-54
2021/03/13 13:04:56;;;;;;;;;;;;;;;12.97;32.64;96003.16;1738000;82;20497;-54
2021/03/13 13:07:24;;;;;;;;;;;;;;;12.81;32.90;96017.19;1734189;82;20218;-53
2021/03/13 13:09:52;;;;;;;;;;;;;;;12.56;33.49;96014.15;1743572;82;20357;-54
2021/03/13 13:12:20;;;;;;;;;;;;;;;12.49;34.09;96009.97;1742648;82;21374;-54